Time,TemperatureF,DewpointF,PressureIn,WindDirection,WindDirectionDegrees,WindSpeedMPH,WindSpeedGustMPH,Humidity,HourlyPrecipIn,Conditions,Clouds,dailyrainin,SoftwareType,DateUTC
2013-03-03 00:00:00,31.8,23.5,29.20,West,270,3.6,3.6,71,0.00,,---,0.00,VWS V14.01,2013-03-03 05:00:00,
2013-03-03 00:01:00,31.6,23.3,29.20,WNW,292,2.0,3.6,71,0.00,,---,0.00,VWS V14.01,2013-03-03 05:01:00,
2013-03-03 00:03:00,31.6,23.3,29.20,NNW,338,2.5,2.7,71,0.00,,---,0.00,VWS V14.01,2013-03-03 05:03:00,
2013-03-03 00:04:00,31.6,23.3,29.20,WSW,248,2.7,2.7,71,0.00,,---,0.00,VWS V14.01,2013-03-03 05:04:00,
2013-03-03 00:09:00,31.6,23.3,29.20,WNW,292,2.5,5.8,71,0.00,,---,0.00,VWS V14.01,2013-03-03 05:09:00,
2013-03-03 00:14:00,31.8,23.5,29.20,South,180,4.9,4.9,71,0.00,,---,0.00,VWS V14.01,2013-03-03 05:14:00,
2013-03-03 00:19:00,31.8,23.5,29.20,West,270,2.5,2.7,71,0.00,,---,0.00,VWS V14.01,2013-03-03 05:19:00,
2013-03-03 00:25:00,31.8,23.5,29.20,WSW,248,4.3,4.3,71,0.00,,---,0.00,VWS V14.01,2013-03-03 05:25:00,
2013-03-03 00:30:00,31.8,23.5,29.17,SW,225,2.0,2.0,71,0.00,,---,0.00,VWS V14.01,2013-03-03 05:30:00,
2013-03-03 00:35:00,31.6,23.3,29.17,WSW,248,1.6,1.6,71,0.00,,---,0.00,VWS V14.01,2013-03-03 05:35:00,
2013-03-03 00:41:00,31.6,23.3,29.17,WSW,248,2.5,2.5,71,0.00,,---,0.00,VWS V14.01,2013-03-03 05:41:00,
2013-03-03 00:47:00,31.6,23.3,29.17,SW,225,2.2,2.7,71,0.00,,---,0.00,VWS V14.01,2013-03-03 05:47:00,
2013-03-03 00:52:00,31.6,23.3,29.17,SSW,202,1.6,1.6,71,0.00,,---,0.00,VWS V14.01,2013-03-03 05:52:00,
2013-03-03 00:57:00,31.6,23.3,29.17,SW,225,2.2,2.2,71,0.00,,---,0.00,VWS V14.01,2013-03-03 05:57:00,
2013-03-03 01:02:00,31.6,23.3,29.17,SSE,158,1.6,2.0,71,0.00,,---,0.00,VWS V14.01,2013-03-03 06:02:00,
2013-03-03 01:07:00,31.6,23.3,29.17,South,180,1.3,2.2,71,0.00,,---,0.00,VWS V14.01,2013-03-03 06:07:00,
2013-03-03 01:12:00,31.6,23.3,29.17,WSW,248,2.7,2.7,71,0.00,,---,0.00,VWS V14.01,2013-03-03 06:12:00,
2013-03-03 01:17:00,31.8,22.8,29.17,WSW,248,0.9,2.9,69,0.00,,---,0.00,VWS V14.01,2013-03-03 06:17:00,
2013-03-03 01:22:00,32.0,22.6,29.17,East,90,0.0,2.2,68,0.00,,---,0.00,VWS V14.01,2013-03-03 06:22:00,
2013-03-03 01:27:00,32.2,22.1,29.17,NNW,338,1.6,1.6,66,0.00,,---,0.00,VWS V14.01,2013-03-03 06:27:00,
2013-03-03 01:32:00,32.4,21.9,29.17,SSW,202,2.5,3.4,65,0.00,,---,0.00,VWS V14.01,2013-03-03 06:32:00,
2013-03-03 01:37:00,32.5,21.4,29.17,West,270,2.2,4.0,63,0.00,,---,0.00,VWS V14.01,2013-03-03 06:37:00,
2013-03-03 01:42:00,32.5,21.4,29.17,WSW,248,1.3,4.0,63,0.00,,---,0.00,VWS V14.01,2013-03-03 06:42:00,
2013-03-03 01:48:00,32.5,21.0,29.17,WNW,292,0.9,2.5,62,0.00,,---,0.00,VWS V14.01,2013-03-03 06:48:00,
2013-03-03 01:53:00,32.5,21.0,29.17,WSW,248,1.1,2.7,62,0.00,,---,0.00,VWS V14.01,2013-03-03 06:53:00,
2013-03-03 01:58:00,32.7,20.8,29.17,NE,45,1.6,2.7,61,0.00,,---,0.00,VWS V14.01,2013-03-03 06:58:00,
2013-03-03 02:03:00,32.5,20.6,29.17,SW,225,0.0,1.1,61,0.00,,---,0.00,VWS V14.01,2013-03-03 07:03:00,
2013-03-03 02:08:00,32.5,20.6,29.17,West,270,2.7,3.4,61,0.00,,---,0.00,VWS V14.01,2013-03-03 07:08:00,
2013-03-03 02:13:00,32.7,20.8,29.17,South,180,1.1,2.5,61,0.00,,---,0.00,VWS V14.01,2013-03-03 07:13:00,
2013-03-03 02:18:00,32.7,20.8,29.17,WNW,292,3.4,3.4,61,0.00,,---,0.00,VWS V14.01,2013-03-03 07:18:00,
2013-03-03 02:23:00,32.7,20.8,29.17,SE,135,2.5,3.1,61,0.00,,---,0.00,VWS V14.01,2013-03-03 07:23:00,
2013-03-03 02:28:00,32.7,20.4,29.17,SW,225,1.3,4.7,60,0.00,,---,0.00,VWS V14.01,2013-03-03 07:28:00,
2013-03-03 02:33:00,32.7,20.4,29.17,SW,225,0.0,1.3,60,0.00,,---,0.00,VWS V14.01,2013-03-03 07:33:00,
2013-03-03 02:38:00,32.7,20.4,29.17,SW,225,2.9,2.9,60,0.00,,---,0.00,VWS V14.01,2013-03-03 07:38:00,
2013-03-03 02:44:00,32.7,20.4,29.17,WSW,248,3.1,5.4,60,0.00,,---,0.00,VWS V14.01,2013-03-03 07:44:00,
2013-03-03 02:49:00,32.7,20.4,29.17,WNW,292,2.0,2.0,60,0.00,,---,0.00,VWS V14.01,2013-03-03 07:49:00,
2013-03-03 02:54:00,32.7,20.4,29.17,SW,225,1.3,1.3,60,0.00,,---,0.00,VWS V14.01,2013-03-03 07:54:00,
2013-03-03 03:00:00,32.7,20.0,29.17,SW,225,2.5,3.4,59,0.00,,---,0.00,VWS V14.01,2013-03-03 08:00:00,
2013-03-03 03:05:00,32.9,20.2,29.17,ENE,68,1.1,2.7,59,0.00,,---,0.00,VWS V14.01,2013-03-03 08:05:00,
2013-03-03 03:10:00,32.9,20.2,29.17,NNW,338,1.1,3.4,59,0.00,,---,0.00,VWS V14.01,2013-03-03 08:10:00,
2013-03-03 03:15:00,32.9,20.2,29.17,WNW,292,3.4,3.4,59,0.00,,---,0.00,VWS V14.01,2013-03-03 08:15:00,
2013-03-03 03:20:00,32.9,20.2,29.17,ENE,68,1.3,2.5,59,0.00,,---,0.00,VWS V14.01,2013-03-03 08:20:00,
2013-03-03 03:25:00,33.1,19.9,29.17,ENE,68,1.6,2.7,58,0.00,,---,0.00,VWS V14.01,2013-03-03 08:25:00,
2013-03-03 03:31:00,33.1,20.3,29.17,SSW,202,0.9,5.4,59,0.00,,---,0.00,VWS V14.01,2013-03-03 08:31:00,
2013-03-03 03:36:00,33.1,19.9,29.17,West,270,0.0,2.0,58,0.00,,---,0.00,VWS V14.01,2013-03-03 08:36:00,
2013-03-03 03:41:00,33.1,20.3,29.17,SE,135,0.9,2.2,59,0.00,,---,0.00,VWS V14.01,2013-03-03 08:41:00,
2013-03-03 03:46:00,33.1,20.3,29.14,South,180,0.9,3.6,59,0.00,,---,0.00,VWS V14.01,2013-03-03 08:46:00,
2013-03-03 03:52:00,33.1,20.3,29.14,NNE,22,3.6,3.6,59,0.00,,---,0.00,VWS V14.01,2013-03-03 08:52:00,
2013-03-03 03:57:00,32.9,20.2,29.17,NW,315,1.3,2.9,59,0.00,,---,0.00,VWS V14.01,2013-03-03 08:57:00,
2013-03-03 04:02:00,32.9,20.5,29.17,ESE,112,1.6,3.1,60,0.00,,---,0.00,VWS V14.01,2013-03-03 09:02:00,
2013-03-03 04:07:00,32.7,20.8,29.17,WSW,248,4.0,4.0,61,0.00,,---,0.00,VWS V14.01,2013-03-03 09:07:00,
2013-03-03 04:12:00,32.7,20.8,29.14,ENE,68,3.6,4.0,61,0.00,,---,0.00,VWS V14.01,2013-03-03 09:12:00,
2013-03-03 04:17:00,32.7,20.8,29.14,NNE,22,1.1,2.0,61,0.00,,---,0.00,VWS V14.01,2013-03-03 09:17:00,
2013-03-03 04:23:00,32.7,20.8,29.14,SW,225,3.4,4.9,61,0.00,,---,0.00,VWS V14.01,2013-03-03 09:23:00,
2013-03-03 04:28:00,32.7,21.1,29.14,SW,225,3.8,3.8,62,0.00,,---,0.00,VWS V14.01,2013-03-03 09:28:00,
2013-03-03 04:33:00,32.7,21.1,29.14,West,270,1.6,2.5,62,0.00,,---,0.00,VWS V14.01,2013-03-03 09:33:00,
2013-03-03 04:38:00,32.7,21.1,29.14,SSE,158,2.7,2.7,62,0.00,,---,0.00,VWS V14.01,2013-03-03 09:38:00,
2013-03-03 04:43:00,32.7,21.5,29.14,WNW,292,3.4,3.8,63,0.00,,---,0.00,VWS V14.01,2013-03-03 09:43:00,
2013-03-03 04:49:00,32.7,21.5,29.14,East,90,0.0,0.0,63,0.00,,---,0.00,VWS V14.01,2013-03-03 09:49:00,
2013-03-03 04:55:00,32.7,21.5,29.14,NNW,338,3.6,4.0,63,0.00,,---,0.00,VWS V14.01,2013-03-03 09:55:00,
2013-03-03 05:00:00,32.7,21.5,29.17,NW,315,2.9,4.9,63,0.00,,---,0.00,VWS V14.01,2013-03-03 10:00:00,
2013-03-03 05:05:00,32.7,21.5,29.17,West,270,5.6,5.6,63,0.00,,---,0.00,VWS V14.01,2013-03-03 10:05:00,
2013-03-03 05:10:00,32.7,21.5,29.17,NW,315,1.1,4.0,63,0.00,,---,0.00,VWS V14.01,2013-03-03 10:10:00,
2013-03-03 05:16:00,32.7,21.5,29.17,SSW,202,2.2,2.7,63,0.00,,---,0.00,VWS V14.01,2013-03-03 10:16:00,
2013-03-03 05:21:00,32.7,21.9,29.17,NNE,22,3.6,3.6,64,0.00,,---,0.00,VWS V14.01,2013-03-03 10:21:00,
2013-03-03 05:26:00,32.7,21.5,29.17,SW,225,1.1,3.8,63,0.00,,---,0.00,VWS V14.01,2013-03-03 10:26:00,
2013-03-03 05:32:00,32.7,21.5,29.14,West,270,0.0,2.0,63,0.00,,---,0.00,VWS V14.01,2013-03-03 10:32:00,
2013-03-03 05:38:00,32.5,21.4,29.14,ENE,68,0.9,2.0,63,0.00,,---,0.00,VWS V14.01,2013-03-03 10:38:00,
2013-03-03 05:43:00,32.5,21.4,29.14,SSW,202,1.1,2.2,63,0.00,,---,0.00,VWS V14.01,2013-03-03 10:43:00,
2013-03-03 05:48:00,32.7,21.5,29.14,WSW,248,1.3,3.6,63,0.00,,---,0.00,VWS V14.01,2013-03-03 10:48:00,
2013-03-03 05:54:00,32.7,21.5,29.14,SSW,202,1.6,4.0,63,0.00,,---,0.00,VWS V14.01,2013-03-03 10:54:00,
2013-03-03 05:59:00,32.7,21.5,29.17,WNW,292,2.0,2.5,63,0.00,,---,0.00,VWS V14.01,2013-03-03 10:59:00,
2013-03-03 06:04:00,32.7,21.5,29.17,SSW,202,2.2,2.5,63,0.00,,---,0.00,VWS V14.01,2013-03-03 11:04:00,
2013-03-03 06:10:00,32.7,21.5,29.17,South,180,0.0,2.7,63,0.00,,---,0.00,VWS V14.01,2013-03-03 11:10:00,
2013-03-03 06:15:00,32.7,21.1,29.14,SW,225,1.6,2.2,62,0.00,,---,0.00,VWS V14.01,2013-03-03 11:15:00,
2013-03-03 06:20:00,32.7,21.1,29.14,NW,315,2.5,2.5,62,0.00,,---,0.00,VWS V14.01,2013-03-03 11:20:00,
2013-03-03 06:26:00,32.7,21.1,29.14,West,270,3.1,3.1,62,0.00,,---,0.00,VWS V14.01,2013-03-03 11:26:00,
2013-03-03 06:31:00,32.7,21.1,29.14,WSW,248,3.1,3.1,62,0.00,,---,0.00,VWS V14.01,2013-03-03 11:31:00,
2013-03-03 06:37:00,32.9,21.3,29.14,South,180,2.2,2.2,62,0.00,,---,0.00,VWS V14.01,2013-03-03 11:37:00,
2013-03-03 06:43:00,32.9,21.3,29.17,West,270,2.5,2.5,62,0.00,,---,0.00,VWS V14.01,2013-03-03 11:43:00,
2013-03-03 06:48:00,33.1,21.5,29.17,WNW,292,1.1,2.0,62,0.00,,---,0.00,VWS V14.01,2013-03-03 11:48:00,
2013-03-03 06:54:00,33.1,21.5,29.17,West,270,2.5,2.5,62,0.00,,---,0.00,VWS V14.01,2013-03-03 11:54:00,
2013-03-03 07:00:00,33.3,21.7,29.17,SSE,158,2.0,2.0,62,0.00,,---,0.00,VWS V14.01,2013-03-03 12:00:00,
2013-03-03 07:05:00,33.6,22.0,29.17,West,270,0.0,0.0,62,0.00,,---,0.00,VWS V14.01,2013-03-03 12:05:00,
2013-03-03 07:11:00,33.8,22.2,29.17,NE,45,0.0,2.0,62,0.00,,---,0.00,VWS V14.01,2013-03-03 12:11:00,
2013-03-03 07:16:00,33.8,21.8,29.17,NNW,338,0.0,2.0,61,0.00,,---,0.00,VWS V14.01,2013-03-03 12:16:00,
2013-03-03 07:21:00,34.0,22.0,29.17,WNW,292,2.0,2.0,61,0.00,,---,0.00,VWS V14.01,2013-03-03 12:21:00,
2013-03-03 07:27:00,34.3,21.9,29.17,NNE,22,0.0,1.1,60,0.00,,---,0.00,VWS V14.01,2013-03-03 12:27:00,
2013-03-03 07:32:00,34.7,22.2,29.17,ENE,68,1.6,2.7,60,0.00,,---,0.00,VWS V14.01,2013-03-03 12:32:00,
2013-03-03 07:37:00,35.1,22.2,29.17,South,180,1.1,3.4,59,0.00,,---,0.00,VWS V14.01,2013-03-03 12:37:00,
2013-03-03 07:42:00,35.4,22.9,29.17,SW,225,1.3,2.0,60,0.00,,---,0.00,VWS V14.01,2013-03-03 12:42:00,
2013-03-03 07:47:00,35.6,22.7,29.17,WNW,292,2.0,2.0,59,0.00,,---,0.00,VWS V14.01,2013-03-03 12:47:00,
2013-03-03 07:53:00,36.0,22.6,29.17,NNW,338,3.1,3.1,58,0.00,,---,0.00,VWS V14.01,2013-03-03 12:53:00,
2013-03-03 07:58:00,36.5,22.7,29.14,WNW,292,2.0,3.1,57,0.00,,---,0.00,VWS V14.01,2013-03-03 12:58:00,
2013-03-03 08:04:00,36.7,22.5,29.14,South,180,1.1,1.3,56,0.00,,---,0.00,VWS V14.01,2013-03-03 13:04:00,
2013-03-03 08:09:00,37.2,23.4,29.14,WSW,248,2.0,2.0,57,0.00,,---,0.00,VWS V14.01,2013-03-03 13:09:00,
2013-03-03 08:14:00,37.6,22.9,29.14,SW,225,1.6,2.7,55,0.00,,---,0.00,VWS V14.01,2013-03-03 13:14:00,
2013-03-03 08:19:00,37.9,23.2,29.14,ESE,112,0.9,1.6,55,0.00,,---,0.00,VWS V14.01,2013-03-03 13:19:00,
2013-03-03 08:24:00,38.1,23.4,29.14,East,90,2.0,2.5,55,0.00,,---,0.00,VWS V14.01,2013-03-03 13:24:00,
2013-03-03 08:29:00,38.1,23.0,29.17,South,180,0.0,0.0,54,0.00,,---,0.00,VWS V14.01,2013-03-03 13:29:00,
2013-03-03 08:35:00,38.1,22.5,29.17,NNW,338,2.2,2.2,53,0.00,,---,0.00,VWS V14.01,2013-03-03 13:35:00,
2013-03-03 08:40:00,38.1,22.5,29.17,SSW,202,2.2,2.2,53,0.00,,---,0.00,VWS V14.01,2013-03-03 13:40:00,
2013-03-03 08:46:00,38.3,22.2,29.14,SSW,202,0.0,3.8,52,0.00,,---,0.00,VWS V14.01,2013-03-03 13:46:00,
2013-03-03 08:51:00,39.0,23.4,29.14,SSE,158,2.0,2.0,53,0.00,,---,0.00,VWS V14.01,2013-03-03 13:51:00,
2013-03-03 08:56:00,39.4,23.2,29.14,South,180,2.0,2.7,52,0.00,,---,0.00,VWS V14.01,2013-03-03 13:56:00,
2013-03-03 09:01:00,39.9,23.7,29.14,SSE,158,3.6,3.6,52,0.00,,---,0.00,VWS V14.01,2013-03-03 14:01:00,
2013-03-03 09:07:00,39.9,22.8,29.14,WSW,248,1.6,2.5,50,0.00,,---,0.00,VWS V14.01,2013-03-03 14:07:00,
2013-03-03 09:13:00,40.3,22.7,29.14,NNW,338,2.5,4.3,49,0.00,,---,0.00,VWS V14.01,2013-03-03 14:13:00,
2013-03-03 09:19:00,40.8,23.1,29.14,WNW,292,1.3,4.0,49,0.00,,---,0.00,VWS V14.01,2013-03-03 14:19:00,
2013-03-03 09:25:00,41.2,23.0,29.14,South,180,1.6,3.1,48,0.00,,---,0.00,VWS V14.01,2013-03-03 14:25:00,
2013-03-03 09:31:00,42.1,24.3,29.14,NNE,22,0.0,3.8,49,0.00,,---,0.00,VWS V14.01,2013-03-03 14:31:00,
2013-03-03 09:36:00,42.4,24.1,29.14,ESE,112,1.3,4.3,48,0.00,,---,0.00,VWS V14.01,2013-03-03 14:36:00,
2013-03-03 09:41:00,43.0,24.6,29.14,ESE,112,1.3,2.9,48,0.00,,---,0.00,VWS V14.01,2013-03-03 14:41:00,
2013-03-03 09:46:00,43.3,25.0,29.14,ESE,112,2.5,3.6,48,0.00,,---,0.00,VWS V14.01,2013-03-03 14:46:00,
2013-03-03 09:52:00,43.5,25.1,29.14,ESE,112,2.7,2.9,48,0.00,,---,0.00,VWS V14.01,2013-03-03 14:52:00,
2013-03-03 09:58:00,43.7,24.8,29.12,SW,225,0.0,1.3,47,0.00,,---,0.00,VWS V14.01,2013-03-03 14:58:00,
2013-03-03 10:03:00,43.7,24.3,29.12,ESE,112,3.1,3.1,46,0.00,,---,0.00,VWS V14.01,2013-03-03 15:03:00,
2013-03-03 10:09:00,44.1,24.6,29.12,ENE,68,0.0,0.0,46,0.00,,---,0.00,VWS V14.01,2013-03-03 15:09:00,
2013-03-03 10:14:00,44.8,25.3,29.12,SSW,202,1.6,2.5,46,0.00,,---,0.00,VWS V14.01,2013-03-03 15:14:00,
2013-03-03 10:20:00,45.3,25.8,29.12,ENE,68,2.0,2.0,46,0.00,,---,0.00,VWS V14.01,2013-03-03 15:20:00,
2013-03-03 10:26:00,46.2,26.1,29.12,East,90,1.1,1.3,45,0.00,,---,0.00,VWS V14.01,2013-03-03 15:26:00,
2013-03-03 10:31:00,46.8,26.0,29.09,ENE,68,2.7,2.7,44,0.00,,---,0.00,VWS V14.01,2013-03-03 15:31:00,
2013-03-03 10:37:00,46.9,25.6,29.09,ENE,68,2.0,3.4,43,0.00,,---,0.00,VWS V14.01,2013-03-03 15:37:00,
2013-03-03 10:42:00,46.6,25.3,29.12,ENE,68,2.9,2.9,43,0.00,,---,0.00,VWS V14.01,2013-03-03 15:42:00,
2013-03-03 10:48:00,46.6,25.3,29.12,NE,45,2.7,2.7,43,0.00,,---,0.00,VWS V14.01,2013-03-03 15:48:00,
2013-03-03 10:53:00,45.5,23.2,29.12,ENE,68,3.4,3.8,41,0.00,,---,0.00,VWS V14.01,2013-03-03 15:53:00,
2013-03-03 10:59:00,44.8,23.1,29.12,ENE,68,3.1,3.1,42,0.00,,---,0.00,VWS V14.01,2013-03-03 15:59:00,
2013-03-03 11:05:00,44.1,22.5,29.12,ENE,68,3.8,3.8,42,0.00,,---,0.00,VWS V14.01,2013-03-03 16:05:00,
2013-03-03 11:10:00,43.7,22.7,29.12,ENE,68,0.9,2.7,43,0.00,,---,0.00,VWS V14.01,2013-03-03 16:10:00,
2013-03-03 11:16:00,44.1,23.0,29.12,ENE,68,0.0,2.0,43,0.00,,---,0.00,VWS V14.01,2013-03-03 16:16:00,
2013-03-03 11:21:00,44.1,23.0,29.12,ENE,68,2.5,3.1,43,0.00,,---,0.00,VWS V14.01,2013-03-03 16:21:00,
2013-03-03 11:26:00,45.0,24.4,29.12,NNW,338,0.0,2.0,44,0.00,,---,0.00,VWS V14.01,2013-03-03 16:26:00,
2013-03-03 11:31:00,45.7,24.5,29.12,ESE,112,1.6,2.7,43,0.00,,---,0.00,VWS V14.01,2013-03-03 16:31:00,
2013-03-03 11:37:00,45.5,23.8,29.12,ENE,68,2.7,3.4,42,0.00,,---,0.00,VWS V14.01,2013-03-03 16:37:00,
2013-03-03 11:43:00,45.7,23.9,29.12,WSW,248,3.1,3.8,42,0.00,,---,0.00,VWS V14.01,2013-03-03 16:43:00,
2013-03-03 11:48:00,45.1,22.9,29.12,WSW,248,2.9,3.1,41,0.00,,---,0.00,VWS V14.01,2013-03-03 16:48:00,
2013-03-03 11:53:00,45.3,23.6,29.12,West,270,3.8,5.8,42,0.00,,---,0.00,VWS V14.01,2013-03-03 16:53:00,
2013-03-03 11:58:00,44.6,21.8,29.09,WSW,248,3.4,3.4,40,0.00,,---,0.00,VWS V14.01,2013-03-03 16:58:00,
2013-03-03 12:03:00,45.1,22.9,29.09,SSW,202,2.7,2.7,41,0.00,,---,0.00,VWS V14.01,2013-03-03 17:03:00,
2013-03-03 12:08:00,45.3,23.0,29.09,South,180,2.5,3.6,41,0.00,,---,0.00,VWS V14.01,2013-03-03 17:08:00,
2013-03-03 12:14:00,45.9,23.5,29.09,South,180,1.6,2.2,41,0.00,,---,0.00,VWS V14.01,2013-03-03 17:14:00,
2013-03-03 12:19:00,45.5,23.2,29.09,West,270,1.6,2.7,41,0.00,,---,0.00,VWS V14.01,2013-03-03 17:19:00,
2013-03-03 12:24:00,45.9,23.5,29.09,WNW,292,2.7,5.4,41,0.00,,---,0.00,VWS V14.01,2013-03-03 17:24:00,
2013-03-03 12:29:00,46.2,23.8,29.09,North,0,3.1,4.9,41,0.00,,---,0.00,VWS V14.01,2013-03-03 17:29:00,
2013-03-03 12:35:00,46.0,23.1,29.09,East,90,3.6,4.9,40,0.00,,---,0.00,VWS V14.01,2013-03-03 17:35:00,
2013-03-03 12:40:00,45.3,22.4,29.09,East,90,3.1,3.4,40,0.00,,---,0.00,VWS V14.01,2013-03-03 17:40:00,
2013-03-03 12:46:00,45.3,23.0,29.09,West,270,5.4,5.4,41,0.00,,---,0.00,VWS V14.01,2013-03-03 17:46:00,
2013-03-03 12:51:00,44.8,22.0,29.09,WNW,292,4.3,4.9,40,0.00,,---,0.00,VWS V14.01,2013-03-03 17:51:00,
2013-03-03 12:56:00,44.8,22.0,29.09,East,90,1.6,3.8,40,0.00,,---,0.00,VWS V14.01,2013-03-03 17:56:00,
2013-03-03 13:01:00,44.4,22.2,29.09,NNW,338,2.5,6.5,41,0.00,,---,0.00,VWS V14.01,2013-03-03 18:01:00,
2013-03-03 13:06:00,44.2,22.0,29.09,East,90,0.9,4.0,41,0.00,,---,0.00,VWS V14.01,2013-03-03 18:06:00,
2013-03-03 13:11:00,44.8,22.0,29.09,South,180,2.9,2.9,40,0.00,,---,0.00,VWS V14.01,2013-03-03 18:11:00,
2013-03-03 13:16:00,44.6,21.8,29.09,NNW,338,3.6,3.6,40,0.00,,---,0.00,VWS V14.01,2013-03-03 18:16:00,
2013-03-03 13:22:00,44.1,21.3,29.09,SSE,158,1.1,7.8,40,0.00,,---,0.00,VWS V14.01,2013-03-03 18:22:00,
2013-03-03 13:28:00,43.7,21.0,29.09,South,180,3.1,6.3,40,0.00,,---,0.00,VWS V14.01,2013-03-03 18:28:00,
2013-03-03 13:33:00,43.3,20.6,29.09,NNE,22,3.4,5.6,40,0.00,,---,0.00,VWS V14.01,2013-03-03 18:33:00,
2013-03-03 13:38:00,43.3,21.2,29.09,SSW,202,2.0,4.3,41,0.00,,---,0.00,VWS V14.01,2013-03-03 18:38:00,
2013-03-03 13:44:00,43.3,21.2,29.09,NNW,338,3.6,4.3,41,0.00,,---,0.00,VWS V14.01,2013-03-03 18:44:00,
2013-03-03 13:50:00,43.7,21.6,29.09,WNW,292,3.6,3.6,41,0.00,,---,0.00,VWS V14.01,2013-03-03 18:50:00,
2013-03-03 13:55:00,43.3,21.2,29.09,NNW,338,4.9,7.6,41,0.00,,---,0.00,VWS V14.01,2013-03-03 18:55:00,
2013-03-03 14:00:00,43.0,20.9,29.09,NNW,338,2.5,3.8,41,0.00,,---,0.00,VWS V14.01,2013-03-03 19:00:00,
2013-03-03 14:06:00,42.6,20.6,29.09,SSE,158,3.1,4.3,41,0.00,,---,0.00,VWS V14.01,2013-03-03 19:06:00,
2013-03-03 14:12:00,42.3,20.8,29.09,ESE,112,2.9,3.4,42,0.00,,---,0.00,VWS V14.01,2013-03-03 19:12:00,
2013-03-03 14:18:00,42.3,20.8,29.09,SW,225,4.0,4.0,42,0.00,,---,0.00,VWS V14.01,2013-03-03 19:18:00,
2013-03-03 14:23:00,42.1,20.7,29.09,South,180,6.5,6.5,42,0.00,,---,0.00,VWS V14.01,2013-03-03 19:23:00,
2013-03-03 14:29:00,42.1,20.7,29.09,ESE,112,4.9,6.3,42,0.00,,---,0.00,VWS V14.01,2013-03-03 19:29:00,
2013-03-03 14:35:00,42.1,21.2,29.09,South,180,3.8,4.9,43,0.00,,---,0.00,VWS V14.01,2013-03-03 19:35:00,
2013-03-03 14:40:00,41.9,21.0,29.09,ENE,68,2.5,2.5,43,0.00,,---,0.00,VWS V14.01,2013-03-03 19:40:00,
2013-03-03 14:46:00,41.4,20.6,29.09,ENE,68,4.3,6.3,43,0.00,,---,0.00,VWS V14.01,2013-03-03 19:46:00,
2013-03-03 14:52:00,41.2,20.9,29.09,WNW,292,3.6,3.8,44,0.00,,---,0.00,VWS V14.01,2013-03-03 19:52:00,
2013-03-03 14:57:00,40.6,20.5,29.09,NNW,338,3.6,6.5,44,0.00,,---,0.00,VWS V14.01,2013-03-03 19:57:00,
2013-03-03 15:02:00,40.5,20.8,29.09,NNE,22,5.4,5.4,45,0.00,,---,0.00,VWS V14.01,2013-03-03 20:02:00,
2013-03-03 15:08:00,39.9,20.3,29.09,SSE,158,3.4,5.8,45,0.00,,---,0.00,VWS V14.01,2013-03-03 20:08:00,
2013-03-03 15:13:00,39.6,20.5,29.09,SSE,158,2.9,5.4,46,0.00,,---,0.00,VWS V14.01,2013-03-03 20:13:00,
2013-03-03 15:18:00,39.7,21.2,29.09,NNW,338,3.4,8.5,47,0.00,,---,0.00,VWS V14.01,2013-03-03 20:18:00,
2013-03-03 15:24:00,39.6,21.0,29.09,WNW,292,2.9,3.6,47,0.00,,---,0.00,VWS V14.01,2013-03-03 20:24:00,
2013-03-03 15:29:00,39.7,21.2,29.09,NNW,338,2.7,2.7,47,0.00,,---,0.00,VWS V14.01,2013-03-03 20:29:00,
2013-03-03 15:34:00,39.7,21.2,29.09,SSE,158,2.7,2.9,47,0.00,,---,0.00,VWS V14.01,2013-03-03 20:34:00,
2013-03-03 15:40:00,39.4,21.3,29.09,NNW,338,3.4,4.3,48,0.00,,---,0.00,VWS V14.01,2013-03-03 20:40:00,
2013-03-03 15:45:00,39.2,21.2,29.09,WNW,292,3.6,7.4,48,0.00,,---,0.00,VWS V14.01,2013-03-03 20:45:00,
2013-03-03 15:51:00,38.8,20.8,29.09,NW,315,4.7,8.1,48,0.00,,---,0.00,VWS V14.01,2013-03-03 20:51:00,
2013-03-03 15:56:00,38.7,21.2,29.09,SSW,202,6.3,7.2,49,0.00,,---,0.00,VWS V14.01,2013-03-03 20:56:00,
2013-03-03 16:01:00,38.7,21.2,29.09,WNW,292,2.5,3.8,49,0.00,,---,0.00,VWS V14.01,2013-03-03 21:01:00,
2013-03-03 16:06:00,38.5,21.0,29.09,ENE,68,2.7,2.7,49,0.00,,---,0.00,VWS V14.01,2013-03-03 21:06:00,
2013-03-03 16:12:00,38.3,21.3,29.09,WSW,248,4.0,4.0,50,0.00,,---,0.00,VWS V14.01,2013-03-03 21:12:00,
2013-03-03 16:17:00,38.1,21.1,29.09,SSW,202,3.4,6.0,50,0.00,,---,0.00,VWS V14.01,2013-03-03 21:17:00,
2013-03-03 16:22:00,38.1,21.1,29.09,East,90,6.3,6.3,50,0.00,,---,0.00,VWS V14.01,2013-03-03 21:22:00,
2013-03-03 16:27:00,37.9,21.0,29.09,ESE,112,2.5,2.5,50,0.00,,---,0.00,VWS V14.01,2013-03-03 21:27:00,
2013-03-03 16:33:00,37.8,20.8,29.12,South,180,2.0,2.5,50,0.00,,---,0.00,VWS V14.01,2013-03-03 21:33:00,
2013-03-03 16:38:00,37.6,21.1,29.12,NNW,338,2.2,2.9,51,0.00,,---,0.00,VWS V14.01,2013-03-03 21:38:00,
2013-03-03 16:44:00,37.4,20.9,29.12,WNW,292,4.9,4.9,51,0.00,,---,0.00,VWS V14.01,2013-03-03 21:44:00,
2013-03-03 16:50:00,37.2,20.8,29.12,South,180,2.9,2.9,51,0.00,,---,0.00,VWS V14.01,2013-03-03 21:50:00,
2013-03-03 16:55:00,36.9,20.4,29.12,WNW,292,2.7,5.4,51,0.00,,---,0.00,VWS V14.01,2013-03-03 21:55:00,
2013-03-03 17:00:00,36.9,20.4,29.12,SSW,202,2.0,2.0,51,0.00,,---,0.00,VWS V14.01,2013-03-03 22:00:00,
2013-03-03 17:06:00,36.5,20.6,29.12,SW,225,2.5,5.6,52,0.00,,---,0.00,VWS V14.01,2013-03-03 22:06:00,
2013-03-03 17:12:00,36.3,20.8,29.12,NW,315,2.0,4.3,53,0.00,,---,0.00,VWS V14.01,2013-03-03 22:12:00,
2013-03-03 17:17:00,36.1,20.7,29.12,NNE,22,2.7,3.6,53,0.00,,---,0.00,VWS V14.01,2013-03-03 22:17:00,
2013-03-03 17:22:00,35.8,20.3,29.12,WNW,292,1.6,4.3,53,0.00,,---,0.00,VWS V14.01,2013-03-03 22:22:00,
2013-03-03 17:28:00,35.6,20.2,29.12,NNW,338,2.0,2.7,53,0.00,,---,0.00,VWS V14.01,2013-03-03 22:28:00,
2013-03-03 17:34:00,35.4,20.4,29.12,SSE,158,2.5,2.5,54,0.00,,---,0.00,VWS V14.01,2013-03-03 22:34:00,
2013-03-03 17:40:00,35.4,20.4,29.12,WSW,248,1.6,2.9,54,0.00,,---,0.00,VWS V14.01,2013-03-03 22:40:00,
2013-03-03 17:45:00,35.2,20.7,29.12,NNE,22,1.6,3.6,55,0.00,,---,0.00,VWS V14.01,2013-03-03 22:45:00,
2013-03-03 17:50:00,35.1,20.5,29.12,NNW,338,2.9,3.6,55,0.00,,---,0.00,VWS V14.01,2013-03-03 22:50:00,
2013-03-03 17:55:00,35.1,20.5,29.12,NNE,22,3.8,6.3,55,0.00,,---,0.00,VWS V14.01,2013-03-03 22:55:00,
2013-03-03 18:00:00,34.9,20.4,29.12,SSE,158,0.0,1.6,55,0.00,,---,0.00,VWS V14.01,2013-03-03 23:00:00,
2013-03-03 18:06:00,34.7,20.2,29.12,NW,315,2.0,3.4,55,0.00,,---,0.00,VWS V14.01,2013-03-03 23:06:00,
2013-03-03 18:11:00,34.5,20.0,29.12,SSW,202,2.0,3.4,55,0.00,,---,0.00,VWS V14.01,2013-03-03 23:11:00,
2013-03-03 18:17:00,34.5,20.0,29.14,ESE,112,0.0,2.7,55,0.00,,---,0.00,VWS V14.01,2013-03-03 23:17:00,
2013-03-03 18:23:00,34.3,19.9,29.14,SSW,202,4.0,4.9,55,0.00,,---,0.00,VWS V14.01,2013-03-03 23:23:00,
2013-03-03 18:28:00,34.3,19.9,29.12,NNW,338,0.0,1.1,55,0.00,,---,0.00,VWS V14.01,2013-03-03 23:28:00,
2013-03-03 18:33:00,34.2,19.7,29.12,WSW,248,1.6,1.6,55,0.00,,---,0.00,VWS V14.01,2013-03-03 23:33:00,
2013-03-03 18:39:00,34.0,20.0,29.12,South,180,0.9,2.0,56,0.00,,---,0.00,VWS V14.01,2013-03-03 23:39:00,
2013-03-03 18:44:00,34.0,20.0,29.12,NNW,338,0.9,2.7,56,0.00,,---,0.00,VWS V14.01,2013-03-03 23:44:00,
2013-03-03 18:49:00,34.0,20.0,29.12,NE,45,2.5,3.6,56,0.00,,---,0.00,VWS V14.01,2013-03-03 23:49:00,
2013-03-03 18:54:00,34.0,20.0,29.12,WNW,292,1.1,1.1,56,0.00,,---,0.00,VWS V14.01,2013-03-03 23:54:00,
2013-03-03 18:59:00,34.0,20.0,29.12,SSW,202,1.3,1.3,56,0.00,,---,0.00,VWS V14.01,2013-03-03 23:59:00,
2013-03-03 19:05:00,33.8,19.8,29.12,NNE,22,1.6,2.2,56,0.00,,---,0.00,VWS V14.01,2013-03-04 00:05:00,
2013-03-03 19:11:00,33.8,19.8,29.12,WNW,292,2.7,3.8,56,0.00,,---,0.00,VWS V14.01,2013-03-04 00:11:00,
2013-03-03 19:16:00,33.8,19.8,29.12,WNW,292,2.5,3.4,56,0.00,,---,0.00,VWS V14.01,2013-03-04 00:16:00,
2013-03-03 19:21:00,33.8,19.8,29.12,NNW,338,3.8,5.6,56,0.00,,---,0.00,VWS V14.01,2013-03-04 00:21:00,
2013-03-03 19:26:00,33.8,19.8,29.12,NNW,338,0.0,0.0,56,0.00,,---,0.00,VWS V14.01,2013-03-04 00:26:00,
2013-03-03 19:31:00,33.8,19.8,29.12,ESE,112,2.7,3.4,56,0.00,,---,0.00,VWS V14.01,2013-03-04 00:31:00,
2013-03-03 19:37:00,33.8,19.8,29.12,East,90,1.3,2.2,56,0.00,,---,0.00,VWS V14.01,2013-03-04 00:37:00,
2013-03-03 19:42:00,33.6,19.6,29.12,WNW,292,0.0,0.0,56,0.00,,---,0.00,VWS V14.01,2013-03-04 00:42:00,
2013-03-03 19:47:00,33.6,20.0,29.12,WNW,292,0.0,1.3,57,0.00,,---,0.00,VWS V14.01,2013-03-04 00:47:00,
2013-03-03 19:52:00,33.6,20.0,29.12,WSW,248,0.0,1.6,57,0.00,,---,0.00,VWS V14.01,2013-03-04 00:52:00,
2013-03-03 19:58:00,33.6,19.6,29.12,SW,225,2.9,2.9,56,0.00,,---,0.00,VWS V14.01,2013-03-04 00:58:00,
2013-03-03 20:03:00,33.6,20.0,29.12,WSW,248,0.9,2.5,57,0.00,,---,0.00,VWS V14.01,2013-03-04 01:03:00,
2013-03-03 20:08:00,33.4,19.9,29.12,WSW,248,0.0,0.0,57,0.00,,---,0.00,VWS V14.01,2013-03-04 01:08:00,
2013-03-03 20:13:00,33.3,19.7,29.12,WSW,248,0.0,0.0,57,0.00,,---,0.00,VWS V14.01,2013-03-04 01:13:00,
2013-03-03 20:18:00,33.3,19.7,29.12,WSW,248,0.0,0.0,57,0.00,,---,0.00,VWS V14.01,2013-03-04 01:18:00,
2013-03-03 20:24:00,33.1,19.5,29.12,ENE,68,0.0,0.0,57,0.00,,---,0.00,VWS V14.01,2013-03-04 01:24:00,
2013-03-03 20:29:00,33.1,19.9,29.12,North,0,1.1,2.5,58,0.00,,---,0.00,VWS V14.01,2013-03-04 01:29:00,
2013-03-03 20:34:00,33.1,19.9,29.12,South,180,2.7,3.1,58,0.00,,---,0.00,VWS V14.01,2013-03-04 01:34:00,
2013-03-03 20:39:00,33.1,19.9,29.12,ENE,68,0.0,0.0,58,0.00,,---,0.00,VWS V14.01,2013-03-04 01:39:00,
2013-03-03 20:44:00,33.1,19.9,29.12,South,180,3.1,3.1,58,0.00,,---,0.00,VWS V14.01,2013-03-04 01:44:00,
2013-03-03 20:50:00,33.3,20.1,29.12,ENE,68,1.1,6.0,58,0.00,,---,0.00,VWS V14.01,2013-03-04 01:50:00,
2013-03-03 20:55:00,33.3,20.1,29.12,NNE,22,1.6,2.9,58,0.00,,---,0.00,VWS V14.01,2013-03-04 01:55:00,
2013-03-03 21:00:00,33.4,20.3,29.12,NNW,338,3.8,3.8,58,0.00,,---,0.00,VWS V14.01,2013-03-04 02:00:00,
2013-03-03 21:05:00,33.4,20.3,29.12,NNW,338,2.5,3.6,58,0.00,,---,0.00,VWS V14.01,2013-03-04 02:05:00,
2013-03-03 21:11:00,33.4,20.3,29.12,North,0,4.3,5.4,58,0.00,,---,0.00,VWS V14.01,2013-03-04 02:11:00,
2013-03-03 21:16:00,33.4,20.3,29.12,WSW,248,2.9,2.9,58,0.00,,---,0.00,VWS V14.01,2013-03-04 02:16:00,
2013-03-03 21:21:00,33.6,20.4,29.12,WSW,248,2.0,6.7,58,0.00,,---,0.00,VWS V14.01,2013-03-04 02:21:00,
2013-03-03 21:26:00,33.4,19.9,29.12,NW,315,2.9,4.7,57,0.00,,---,0.00,VWS V14.01,2013-03-04 02:26:00,
2013-03-03 21:31:00,33.3,20.1,29.09,East,90,2.7,4.7,58,0.00,,---,0.00,VWS V14.01,2013-03-04 02:31:00,
2013-03-03 21:36:00,33.1,19.9,29.09,NNW,338,5.8,6.0,58,0.00,,---,0.00,VWS V14.01,2013-03-04 02:36:00,
2013-03-03 21:41:00,33.1,19.5,29.09,NNW,338,3.6,4.0,57,0.00,,---,0.00,VWS V14.01,2013-03-04 02:41:00,
2013-03-03 21:46:00,33.1,19.9,29.09,ENE,68,2.7,8.1,58,0.00,,---,0.00,VWS V14.01,2013-03-04 02:46:00,
2013-03-03 21:52:00,33.1,20.3,29.09,SE,135,3.8,4.3,59,0.00,,---,0.00,VWS V14.01,2013-03-04 02:52:00,
2013-03-03 21:57:00,32.9,19.8,29.09,SSW,202,6.0,6.0,58,0.00,,---,0.00,VWS V14.01,2013-03-04 02:57:00,
2013-03-03 22:02:00,32.9,19.8,29.09,SSE,158,2.5,4.3,58,0.00,,---,0.00,VWS V14.01,2013-03-04 03:02:00,
2013-03-03 22:08:00,32.7,19.6,29.09,SSW,202,2.7,6.5,58,0.00,,---,0.00,VWS V14.01,2013-03-04 03:08:00,
2013-03-03 22:13:00,32.7,19.6,29.09,NW,315,4.3,6.3,58,0.00,,---,0.00,VWS V14.01,2013-03-04 03:13:00,
2013-03-03 22:18:00,32.7,19.6,29.09,NNE,22,5.6,5.6,58,0.00,,---,0.00,VWS V14.01,2013-03-04 03:18:00,
2013-03-03 22:23:00,32.5,19.8,29.09,SSW,202,7.4,7.4,59,0.00,,---,0.00,VWS V14.01,2013-03-04 03:23:00,
2013-03-03 22:28:00,32.5,19.8,29.09,West,270,2.2,4.3,59,0.00,,---,0.00,VWS V14.01,2013-03-04 03:28:00,
2013-03-03 22:34:00,32.4,19.6,29.09,NE,45,6.3,6.3,59,0.00,,---,0.00,VWS V14.01,2013-03-04 03:34:00,
2013-03-03 22:39:00,32.4,20.0,29.09,SSW,202,3.1,5.6,60,0.00,,---,0.00,VWS V14.01,2013-03-04 03:39:00,
2013-03-03 22:45:00,32.4,20.0,29.09,West,270,7.4,7.4,60,0.00,,---,0.00,VWS V14.01,2013-03-04 03:45:00,
2013-03-03 22:50:00,32.4,20.0,29.09,NW,315,2.5,3.8,60,0.00,,---,0.00,VWS V14.01,2013-03-04 03:50:00,
2013-03-03 22:55:00,32.4,20.0,29.09,East,90,3.8,4.0,60,0.00,,---,0.00,VWS V14.01,2013-03-04 03:55:00,
2013-03-03 23:00:00,32.2,19.9,29.09,WSW,248,2.5,3.1,60,0.00,,---,0.00,VWS V14.01,2013-03-04 04:00:00,
2013-03-03 23:05:00,32.2,19.9,29.09,SSE,158,2.5,2.7,60,0.00,,---,0.00,VWS V14.01,2013-03-04 04:05:00,
2013-03-03 23:10:00,32.0,19.7,29.09,NNW,338,2.7,2.9,60,0.00,,---,0.00,VWS V14.01,2013-03-04 04:10:00,
2013-03-03 23:15:00,32.0,19.3,29.09,NNW,338,3.4,6.5,59,0.00,,---,0.00,VWS V14.01,2013-03-04 04:15:00,
2013-03-03 23:21:00,31.8,19.5,29.09,WSW,248,4.0,4.3,60,0.00,,---,0.00,VWS V14.01,2013-03-04 04:21:00,
2013-03-03 23:26:00,31.8,19.1,29.09,WNW,292,2.7,3.6,59,0.00,,---,0.00,VWS V14.01,2013-03-04 04:26:00,
2013-03-03 23:31:00,31.6,19.0,29.09,ESE,112,4.3,4.9,59,0.00,,---,0.00,VWS V14.01,2013-03-04 04:31:00,
2013-03-03 23:36:00,31.6,19.4,29.09,SSW,202,2.9,3.8,60,0.00,,---,0.00,VWS V14.01,2013-03-04 04:36:00,
2013-03-03 23:41:00,31.6,19.4,29.09,NNE,22,2.5,3.4,60,0.00,,---,0.00,VWS V14.01,2013-03-04 04:41:00,
2013-03-03 23:47:00,31.6,19.0,29.09,SW,225,3.6,3.6,59,0.00,,---,0.00,VWS V14.01,2013-03-04 04:47:00,
2013-03-03 23:52:00,31.6,19.0,29.09,West,270,1.6,3.8,59,0.00,,---,0.00,VWS V14.01,2013-03-04 04:52:00,
2013-03-03 23:57:00,31.5,18.8,29.09,South,180,2.0,3.1,59,0.00,,---,0.00,VWS V14.01,2013-03-04 04:57:00,